ADDS METAR Data

Data at: 1835 UTC 20 Jul 2018

METAR for:KFMH (Otis ANGB, MA, US)
Text:KFMH 201815Z AUTO 13011KT 10SM CLR 25/16 A3020 RMK AO2
Temperature: 25.0°C ( 77°F)
Dewpoint: 16.0°C ( 61°F) [RH = 57%]
Pressure (altimeter):30.20 inches Hg (1022.8 mb)
Winds:from the SE (130 degrees) at 13 MPH (11 knots; 5.7 m/s)
Visibility:10 or more sm (16+ km)
Ceiling:at least 12,000 feet AGL
Clouds:sky clear below 12,000 feet AGL
QC Flag:automated observation with no human augmentation